createdAt,value
2018-11-25T00:02:33.096Z,31.47
2018-11-25T00:07:23.985Z,31.40
2018-11-25T00:12:14.896Z,30.60
2018-11-25T00:17:05.793Z,29.70
2018-11-25T00:21:57.441Z,31.00
2018-11-25T00:26:48.335Z,31.70
2018-11-25T00:31:39.971Z,30.60
2018-11-25T00:36:31.592Z,30.00
2018-11-25T00:41:22.498Z,31.27
2018-11-25T00:46:13.388Z,28.70
2018-11-25T00:51:04.279Z,30.30
2018-11-25T00:55:55.240Z,31.30
2018-11-25T01:00:46.142Z,31.60
2018-11-25T01:05:37.037Z,29.93
2018-11-25T01:10:27.987Z,28.00
2018-11-25T01:15:18.867Z,31.43
2018-11-25T01:20:09.762Z,31.70
2018-11-25T01:25:01.418Z,29.70
2018-11-25T01:29:52.327Z,31.20
2018-11-25T01:34:43.960Z,29.83
2018-11-25T01:39:35.588Z,31.17
2018-11-25T01:44:27.296Z,28.67
2018-11-25T01:49:18.197Z,31.33
2018-11-25T01:54:09.104Z,29.07
2018-11-25T01:59:00.680Z,30.50
2018-11-25T02:03:50.942Z,30.50
2018-11-25T02:08:41.887Z,29.50
2018-11-25T02:13:32.807Z,29.60
2018-11-25T02:18:23.709Z,29.10
2018-11-25T02:23:14.627Z,27.60
2018-11-25T02:28:05.573Z,29.77
2018-11-25T02:32:57.218Z,28.60
2018-11-25T02:37:48.131Z,29.10
2018-11-25T02:42:39.151Z,30.93
2018-11-25T02:47:30.074Z,29.13
2018-11-25T02:52:20.998Z,28.97
2018-11-25T02:57:12.659Z,26.60
2018-11-25T03:02:03.576Z,28.83
2018-11-25T03:06:56.058Z,26.47
2018-11-25T03:11:47.021Z,28.57
2018-11-25T03:16:38.674Z,29.80
2018-11-25T03:21:30.331Z,26.60
2018-11-25T03:26:21.303Z,27.23
2018-11-25T03:31:12.216Z,27.10
2018-11-25T03:36:03.139Z,28.87
2018-11-25T03:40:54.050Z,28.00
2018-11-25T03:45:44.978Z,26.50
2018-11-25T03:50:35.911Z,26.93
2018-11-25T03:55:26.815Z,25.90
2018-11-25T04:00:17.731Z,29.37
2018-11-25T04:05:08.638Z,27.43
2018-11-25T04:09:59.546Z,28.00
2018-11-25T04:14:50.508Z,28.30
2018-11-25T04:19:42.172Z,27.57
2018-11-25T04:24:33.187Z,27.87
2018-11-25T04:29:24.095Z,27.60
2018-11-25T04:34:15.791Z,27.50
2018-11-25T04:39:06.686Z,26.10
2018-11-25T04:43:57.593Z,27.60
2018-11-25T04:48:48.504Z,25.57
2018-11-25T04:53:39.407Z,26.80
2018-11-25T04:58:31.051Z,28.57
2018-11-25T05:03:22.747Z,27.20
2018-11-25T05:08:13.657Z,25.13
2018-11-25T05:13:04.563Z,25.80
2018-11-25T05:17:55.463Z,27.10
2018-11-25T05:22:46.376Z,25.10
2018-11-25T05:27:37.286Z,26.20
2018-11-25T05:32:28.205Z,26.17
2018-11-25T05:37:19.098Z,25.93
2018-11-25T05:42:10.747Z,26.00
2018-11-25T05:47:02.439Z,26.03
2018-11-25T05:51:53.342Z,26.20
2018-11-25T05:56:44.255Z,25.30
2018-11-25T06:01:35.169Z,25.30
2018-11-25T06:06:26.120Z,27.30
2018-11-25T06:11:17.015Z,23.50
2018-11-25T06:16:07.923Z,23.03
2018-11-25T06:20:58.879Z,25.40
2018-11-25T06:25:49.803Z,24.50
2018-11-25T06:30:40.716Z,25.23
2018-11-25T06:35:31.635Z,26.17
2018-11-25T06:40:22.552Z,24.93
2018-11-25T06:45:13.483Z,24.63
2018-11-25T06:50:04.393Z,26.43
2018-11-25T06:54:55.521Z,22.83
2018-11-25T06:59:46.432Z,24.03
2018-11-25T07:04:37.475Z,23.93
2018-11-25T07:09:29.145Z,24.10
2018-11-25T07:14:20.046Z,24.03
2018-11-25T07:19:11.699Z,23.83
2018-11-25T07:24:02.606Z,24.30
2018-11-25T07:28:53.583Z,21.50
2018-11-25T07:33:44.487Z,24.50
2018-11-25T07:38:35.402Z,22.07
2018-11-25T07:43:26.319Z,22.50
2018-11-25T07:48:17.230Z,23.10
2018-11-25T07:53:08.160Z,22.50
2018-11-25T07:57:59.083Z,21.67
2018-11-25T08:02:49.998Z,22.43
2018-11-25T08:07:40.913Z,22.90
2018-11-25T08:12:31.823Z,24.07
2018-11-25T08:17:22.735Z,21.83
2018-11-25T08:22:13.647Z,20.70
2018-11-25T08:27:04.551Z,22.17
2018-11-25T08:31:55.469Z,22.57
2018-11-25T08:36:46.375Z,21.90
2018-11-25T08:41:38.060Z,24.17
2018-11-25T08:46:28.990Z,24.30
2018-11-25T08:51:19.909Z,22.87
2018-11-25T08:56:11.644Z,22.87
2018-11-25T09:01:02.568Z,24.63
2018-11-25T09:05:53.496Z,23.23
2018-11-25T09:10:44.398Z,22.67
2018-11-25T09:15:35.303Z,21.57
2018-11-25T09:20:26.222Z,21.50
2018-11-25T09:25:17.135Z,21.70
2018-11-25T09:30:08.051Z,20.80
2018-11-25T09:34:58.967Z,22.50
2018-11-25T09:39:49.964Z,22.47
2018-11-25T09:44:40.908Z,21.73
2018-11-25T09:49:31.823Z,22.13
2018-11-25T09:54:22.783Z,23.47
2018-11-25T09:59:13.699Z,20.67
2018-11-25T10:04:05.351Z,23.47
2018-11-25T10:08:56.267Z,21.83
2018-11-25T10:13:47.922Z,23.17
2018-11-25T10:18:39.577Z,21.30
2018-11-25T10:23:30.518Z,21.27
2018-11-25T10:28:21.424Z,23.23
2018-11-25T10:33:12.328Z,21.77
2018-11-25T10:38:03.267Z,21.50
2018-11-25T10:42:54.215Z,23.10
2018-11-25T10:47:45.130Z,22.57
2018-11-25T10:52:36.031Z,21.30
2018-11-25T10:57:26.971Z,23.07
2018-11-25T11:02:17.875Z,27.57
2018-11-25T11:12:30.618Z,33.42
2018-11-25T11:17:21.530Z,30.53
2018-11-25T11:22:12.512Z,30.07
2018-11-25T11:27:03.407Z,32.10
2018-11-25T11:31:54.315Z,31.90
2018-11-25T11:36:45.225Z,32.67
2018-11-25T11:41:36.175Z,31.67
2018-11-25T11:46:27.183Z,28.40
2018-11-25T11:51:25.332Z,31.60
2018-11-25T11:56:09.024Z,32.10
2018-11-25T12:00:59.948Z,33.93
2018-11-25T12:05:51.812Z,32.20
2018-11-25T12:10:43.487Z,33.10
2018-11-25T12:15:34.430Z,34.40
2018-11-25T12:20:25.354Z,32.10
2018-11-25T12:25:16.351Z,32.40
2018-11-25T12:30:07.968Z,32.73
2018-11-25T12:34:58.939Z,36.20
2018-11-25T12:39:49.859Z,36.90
2018-11-25T12:44:40.780Z,36.00
2018-11-25T12:49:31.779Z,35.37
2018-11-25T12:54:22.735Z,35.90
2018-11-25T12:59:14.397Z,35.90
2018-11-25T13:04:05.319Z,36.70
2018-11-25T13:08:56.368Z,34.40
2018-11-25T13:13:47.284Z,35.10
2018-11-25T13:18:38.200Z,36.60
2018-11-25T13:23:29.127Z,35.30
2018-11-25T13:28:20.043Z,35.47
2018-11-25T13:33:10.952Z,36.43
2018-11-25T13:38:01.847Z,35.60
2018-11-25T13:42:53.488Z,34.77
2018-11-25T13:47:44.544Z,33.47
2018-11-25T13:52:35.451Z,35.10
2018-11-25T13:57:26.392Z,32.37
2018-11-25T14:02:17.295Z,33.87
2018-11-25T14:07:08.243Z,33.03
2018-11-25T14:11:59.267Z,31.53
2018-11-25T14:16:50.276Z,31.30
2018-11-25T14:21:41.304Z,33.13
2018-11-25T14:26:32.254Z,32.60
2018-11-25T14:31:23.910Z,33.00
2018-11-25T14:36:14.921Z,31.53
2018-11-25T14:41:05.895Z,32.50
2018-11-25T14:45:56.808Z,33.33
2018-11-25T14:50:47.730Z,31.27
2018-11-25T14:55:38.691Z,29.90
2018-11-25T15:00:30.343Z,32.37
2018-11-25T15:05:21.338Z,31.37
2018-11-25T15:10:12.985Z,32.33
2018-11-25T15:15:03.907Z,32.43
2018-11-25T15:19:54.887Z,32.47
2018-11-25T15:24:45.820Z,37.07
2018-11-25T15:29:36.742Z,37.07
2018-11-25T15:34:28.395Z,36.33
2018-11-25T15:39:20.060Z,36.83
2018-11-25T15:44:11.027Z,37.60
2018-11-25T15:49:02.031Z,35.20
2018-11-25T15:53:53.023Z,37.70
2018-11-25T15:58:43.991Z,36.57
2018-11-25T16:03:35.124Z,36.87
2018-11-25T16:08:26.844Z,37.67
2018-11-25T16:13:17.756Z,37.57
2018-11-25T16:18:08.811Z,37.37
2018-11-25T16:23:00.544Z,38.50
2018-11-25T16:27:52.182Z,37.70
2018-11-25T16:32:43.909Z,39.23
2018-11-25T16:37:35.559Z,37.93
2018-11-25T16:42:26.467Z,40.03
2018-11-25T16:47:18.188Z,39.73
2018-11-25T16:52:09.086Z,38.67
2018-11-25T16:56:59.991Z,38.17
2018-11-25T17:01:50.899Z,40.17
2018-11-25T17:06:41.908Z,37.67
2018-11-25T17:11:32.811Z,36.97
2018-11-25T17:16:23.722Z,38.00
2018-11-25T17:21:15.375Z,39.07
2018-11-25T17:26:06.284Z,39.07
2018-11-25T17:30:57.187Z,38.37
2018-11-25T17:35:48.884Z,38.27
2018-11-25T17:40:39.782Z,41.60
2018-11-25T17:45:30.691Z,40.40
2018-11-25T17:50:21.624Z,44.13
2018-11-25T17:55:12.590Z,42.07
2018-11-25T18:00:03.483Z,40.37
2018-11-25T18:04:54.416Z,43.83
2018-11-25T18:09:45.324Z,42.30
2018-11-25T18:14:36.267Z,42.30
2018-11-25T18:19:27.171Z,41.90
2018-11-25T18:24:18.201Z,43.70
2018-11-25T18:29:09.107Z,42.13
2018-11-25T18:34:00.026Z,40.90
2018-11-25T18:38:50.942Z,43.37
2018-11-25T18:43:41.851Z,42.30
2018-11-25T18:48:32.767Z,43.73
2018-11-25T18:53:23.675Z,42.80
2018-11-25T18:58:14.651Z,49.37
2018-11-25T19:03:06.303Z,61.67
2018-11-25T19:07:57.214Z,50.80
2018-11-25T19:12:48.928Z,50.17
2018-11-25T19:17:40.656Z,46.20
2018-11-25T19:22:31.671Z,46.67
2018-11-25T19:27:22.595Z,44.77
2018-11-25T19:32:13.735Z,45.87
2018-11-25T19:37:05.452Z,43.33
2018-11-25T19:41:56.432Z,43.00
2018-11-25T19:46:47.367Z,43.83
2018-11-25T19:51:38.319Z,41.27
2018-11-25T19:56:29.393Z,39.13
2018-11-25T20:01:20.351Z,39.70
2018-11-25T20:06:11.263Z,40.50
2018-11-25T20:11:02.184Z,37.80
2018-11-25T20:15:53.098Z,38.13
2018-11-25T20:20:44.031Z,37.40
2018-11-25T20:25:34.935Z,37.60
2018-11-25T20:30:25.948Z,39.43
2018-11-25T20:35:16.856Z,38.00
2018-11-25T20:40:07.764Z,36.80
2018-11-25T20:44:58.723Z,35.50
2018-11-25T20:49:49.636Z,36.97
2018-11-25T20:54:40.559Z,39.73
2018-11-25T20:59:31.612Z,37.73
2018-11-25T21:04:23.336Z,39.20
2018-11-25T21:09:14.566Z,40.67
2018-11-25T21:14:05.555Z,40.07
2018-11-25T21:18:56.572Z,37.83
2018-11-25T21:23:47.512Z,36.13
2018-11-25T21:28:38.535Z,35.53
2018-11-25T21:33:29.588Z,35.50
2018-11-25T21:38:20.581Z,35.27
2018-11-25T21:43:11.598Z,32.40
2018-11-25T21:48:02.621Z,34.77
2018-11-25T21:52:54.493Z,32.20
2018-11-25T21:57:45.479Z,29.77
2018-11-25T22:02:36.504Z,31.70
2018-11-25T22:07:27.510Z,31.40
2018-11-25T22:12:18.446Z,31.03
2018-11-25T22:17:09.359Z,30.67
2018-11-25T22:22:01.095Z,29.07
2018-11-25T22:26:52.115Z,29.20
2018-11-25T22:31:43.029Z,27.57
2018-11-25T22:36:34.067Z,29.27
2018-11-25T22:41:25.847Z,28.97
2018-11-25T22:46:16.760Z,26.30
2018-11-25T22:51:07.731Z,26.50
2018-11-25T22:55:58.761Z,27.17
2018-11-25T23:00:49.763Z,27.67
2018-11-25T23:11:05.832Z,32.30
2018-11-25T23:15:57.587Z,26.20
2018-11-25T23:20:48.571Z,27.50
2018-11-25T23:25:39.591Z,26.40
2018-11-25T23:30:30.508Z,24.90
2018-11-25T23:35:21.528Z,26.90
2018-11-25T23:40:12.572Z,25.83
2018-11-25T23:45:04.309Z,25.63
2018-11-25T23:49:55.329Z,25.47
2018-11-25T23:54:46.319Z,25.67
2018-11-25T23:59:37.218Z,25.67
